createdAt,value
2019-05-10T00:00:30.027Z,42.35
2019-05-10T00:01:52.594Z,42.98
2019-05-10T00:03:15.157Z,43.08
2019-05-10T00:04:38.154Z,41.45
2019-05-10T00:06:00.596Z,45.85
2019-05-10T00:07:23.287Z,46.42
2019-05-10T00:08:45.679Z,47.65
2019-05-10T00:09:49.607Z,43.63
2019-05-10T00:11:12.206Z,46.30
2019-05-10T00:12:34.597Z,47.65
2019-05-10T00:13:42.393Z,47.98
2019-05-10T00:14:52.384Z,49.15
2019-05-10T00:15:57.261Z,48.83
2019-05-10T00:17:21.329Z,47.43
2019-05-10T00:18:26.225Z,46.70
2019-05-10T00:19:31.400Z,46.58
2019-05-10T00:20:36.276Z,49.67
2019-05-10T00:21:41.377Z,49.67
2019-05-10T00:22:46.486Z,48.42
2019-05-10T00:23:51.567Z,48.40
2019-05-10T00:25:03.897Z,49.73
2019-05-10T00:26:03.439Z,46.40
2019-05-10T00:27:08.432Z,47.70
2019-05-10T00:28:13.909Z,45.23
2019-05-10T00:29:19.212Z,46.95
2019-05-10T00:30:24.307Z,45.92
2019-05-10T00:31:29.220Z,46.55
2019-05-10T00:32:34.447Z,45.38
2019-05-10T00:33:39.313Z,46.25
2019-05-10T00:34:44.579Z,46.77
2019-05-10T00:35:49.564Z,46.98
2019-05-10T00:36:54.620Z,47.45
2019-05-10T00:37:59.692Z,48.20
2019-05-10T00:39:05.996Z,50.25
2019-05-10T00:40:10.925Z,47.25
2019-05-10T00:41:16.339Z,49.20
2019-05-10T00:42:21.404Z,47.48
2019-05-10T00:43:26.805Z,46.50
2019-05-10T00:44:31.842Z,44.20
2019-05-10T00:45:36.984Z,42.35
2019-05-10T00:46:42.014Z,47.40
2019-05-10T00:47:47.140Z,45.45
2019-05-10T00:48:51.984Z,44.48
2019-05-10T00:49:57.272Z,47.50
2019-05-10T00:51:02.297Z,45.03
2019-05-10T00:52:07.577Z,48.63
2019-05-10T00:53:12.839Z,44.25
2019-05-10T00:54:18.244Z,46.35
2019-05-10T00:55:23.132Z,43.30
2019-05-10T00:56:28.331Z,46.02
2019-05-10T00:57:33.501Z,43.65
2019-05-10T00:58:38.632Z,42.83
2019-05-10T00:59:43.505Z,48.73
2019-05-10T01:00:48.648Z,50.75
2019-05-10T01:01:53.652Z,49.38
2019-05-10T01:02:58.823Z,45.80
2019-05-10T01:04:03.832Z,44.85
2019-05-10T01:05:08.910Z,42.88
2019-05-10T01:06:13.750Z,43.25
2019-05-10T01:07:18.792Z,45.38
2019-05-10T01:08:23.829Z,49.35
2019-05-10T01:09:28.911Z,48.63
2019-05-10T01:10:33.988Z,45.20
2019-05-10T01:11:39.083Z,44.35
2019-05-10T01:12:43.982Z,45.23
2019-05-10T01:13:49.061Z,43.23
2019-05-10T01:14:53.924Z,42.30
2019-05-10T01:15:58.938Z,42.27
2019-05-10T01:17:03.993Z,41.75
2019-05-10T01:18:09.034Z,41.05
2019-05-10T01:19:14.020Z,40.78
2019-05-10T01:20:19.252Z,42.00
2019-05-10T01:21:24.032Z,40.03
2019-05-10T01:22:29.248Z,40.85
2019-05-10T01:23:34.168Z,41.53
2019-05-10T01:24:39.197Z,40.28
2019-05-10T01:25:43.986Z,42.25
2019-05-10T01:26:49.125Z,41.35
2019-05-10T01:27:54.021Z,42.30
2019-05-10T01:28:59.104Z,41.13
2019-05-10T01:30:03.970Z,42.98
2019-05-10T01:31:10.560Z,41.88
2019-05-10T01:32:15.629Z,42.05
2019-05-10T01:33:20.667Z,41.60
2019-05-10T01:34:25.562Z,42.48
2019-05-10T01:35:30.670Z,42.58
2019-05-10T01:36:35.580Z,41.45
2019-05-10T01:37:40.697Z,42.58
2019-05-10T01:38:45.620Z,41.77
2019-05-10T01:39:50.596Z,41.02
2019-05-10T01:40:55.404Z,42.43
2019-05-10T01:42:00.473Z,42.35
2019-05-10T01:43:05.292Z,41.30
2019-05-10T01:44:10.398Z,42.40
2019-05-10T01:45:15.465Z,40.12
2019-05-10T01:46:20.553Z,41.58
2019-05-10T01:47:25.381Z,42.50
2019-05-10T01:48:30.357Z,41.98
2019-05-10T01:49:35.230Z,41.85
2019-05-10T01:50:40.279Z,41.30
2019-05-10T01:51:45.053Z,41.20
2019-05-10T01:52:50.061Z,40.50
2019-05-10T01:53:54.949Z,41.55
2019-05-10T01:55:00.045Z,41.45
2019-05-10T01:56:04.950Z,41.30
2019-05-10T01:57:10.008Z,43.35
2019-05-10T01:58:15.060Z,41.63
2019-05-10T01:59:20.136Z,41.92
2019-05-10T02:00:25.131Z,42.43
2019-05-10T02:01:30.102Z,42.62
2019-05-10T02:02:34.897Z,42.55
2019-05-10T02:03:40.019Z,41.45
2019-05-10T02:04:44.946Z,43.35
2019-05-10T02:05:50.001Z,43.92
2019-05-10T02:06:55.056Z,44.38
2019-05-10T02:08:00.130Z,42.73
2019-05-10T02:09:06.500Z,42.73
2019-05-10T02:10:12.240Z,43.00
2019-05-10T02:11:17.196Z,42.27
2019-05-10T02:12:22.251Z,43.52
2019-05-10T02:13:27.152Z,43.33
2019-05-10T02:14:32.201Z,44.30
2019-05-10T02:15:37.004Z,44.95
2019-05-10T02:16:42.004Z,44.27
2019-05-10T02:17:46.896Z,45.30
2019-05-10T02:18:51.896Z,42.98
2019-05-10T02:19:56.769Z,43.33
2019-05-10T02:21:01.946Z,43.42
2019-05-10T02:22:06.810Z,46.50
2019-05-10T02:23:11.883Z,43.50
2019-05-10T02:24:16.876Z,45.00
2019-05-10T02:25:21.851Z,44.58
2019-05-10T02:26:26.818Z,44.55
2019-05-10T02:27:31.985Z,46.00
2019-05-10T02:28:36.856Z,43.78
2019-05-10T02:29:42.110Z,45.23
2019-05-10T02:30:46.989Z,45.28
2019-05-10T02:31:52.137Z,45.83
2019-05-10T02:32:56.969Z,44.45
2019-05-10T02:34:02.088Z,44.65
2019-05-10T02:35:06.992Z,46.55
2019-05-10T02:36:12.018Z,44.70
2019-05-10T02:37:16.952Z,45.55
2019-05-10T02:38:21.982Z,45.00
2019-05-10T02:39:26.786Z,44.70
2019-05-10T02:40:32.026Z,44.48
2019-05-10T02:41:37.107Z,45.90
2019-05-10T02:42:42.218Z,45.75
2019-05-10T02:43:47.094Z,45.30
2019-05-10T02:44:52.492Z,44.88
2019-05-10T02:45:57.868Z,44.25
2019-05-10T02:47:02.944Z,46.18
2019-05-10T02:48:07.949Z,44.33
2019-05-10T02:49:13.062Z,43.83
2019-05-10T02:50:18.210Z,46.25
2019-05-10T02:51:23.290Z,44.77
2019-05-10T02:52:28.112Z,44.65
2019-05-10T02:53:33.491Z,43.48
2019-05-10T02:54:38.517Z,43.25
2019-05-10T02:55:43.825Z,44.80
2019-05-10T02:56:49.424Z,44.48
2019-05-10T02:57:55.676Z,42.85
2019-05-10T02:59:02.091Z,42.45
2019-05-10T03:00:09.096Z,40.92
2019-05-10T03:01:15.694Z,42.43
2019-05-10T03:02:20.873Z,43.68
2019-05-10T03:03:26.845Z,42.60
2019-05-10T03:04:34.945Z,41.65
2019-05-10T03:05:48.212Z,43.83
2019-05-10T03:06:53.523Z,42.08
2019-05-10T03:07:59.525Z,40.60
2019-05-10T03:09:08.481Z,43.28
2019-05-10T03:10:14.158Z,42.30
2019-05-10T03:11:19.457Z,40.85
2019-05-10T03:12:26.137Z,42.70
2019-05-10T03:13:32.504Z,39.75
2019-05-10T03:14:42.834Z,40.05
2019-05-10T03:15:50.432Z,38.45
2019-05-10T03:16:55.201Z,39.88
2019-05-10T03:18:03.480Z,38.45
2019-05-10T03:19:11.654Z,38.50
2019-05-10T03:20:16.781Z,39.23
2019-05-10T03:21:23.820Z,37.42
2019-05-10T03:22:28.879Z,38.35
2019-05-10T03:23:33.900Z,36.73
2019-05-10T03:24:39.039Z,35.90
2019-05-10T03:25:43.922Z,36.58
2019-05-10T03:26:51.474Z,36.48
2019-05-10T03:27:56.511Z,35.03
2019-05-10T03:29:01.554Z,37.10
2019-05-10T03:30:07.028Z,33.95
2019-05-10T03:31:12.074Z,34.00
2019-05-10T03:32:17.164Z,33.98
2019-05-10T03:33:22.237Z,33.78
2019-05-10T03:34:27.093Z,32.98
2019-05-10T03:35:32.218Z,33.73
2019-05-10T03:36:37.535Z,34.25
2019-05-10T03:37:42.683Z,32.55
2019-05-10T03:38:47.968Z,32.73
2019-05-10T03:39:52.997Z,34.38
2019-05-10T03:40:58.197Z,33.02
2019-05-10T03:42:03.403Z,32.20
2019-05-10T03:43:08.444Z,31.90
2019-05-10T03:44:13.546Z,31.68
2019-05-10T03:45:18.516Z,32.53
2019-05-10T03:46:23.489Z,34.58
2019-05-10T03:47:28.388Z,34.78
2019-05-10T03:48:33.414Z,34.13
2019-05-10T03:49:38.284Z,35.48
2019-05-10T03:50:43.530Z,35.73
2019-05-10T03:51:48.456Z,35.65
2019-05-10T03:52:53.561Z,37.23
2019-05-10T03:53:58.576Z,35.55
2019-05-10T03:55:03.932Z,38.85
2019-05-10T03:56:09.011Z,35.17
2019-05-10T03:57:14.938Z,34.85
2019-05-10T03:58:20.188Z,36.55
2019-05-10T03:59:25.150Z,36.58
2019-05-10T04:00:30.336Z,36.70
2019-05-10T04:01:35.474Z,35.40
2019-05-10T04:02:40.356Z,32.70
2019-05-10T04:03:45.437Z,32.53
2019-05-10T04:04:50.345Z,32.03
2019-05-10T04:05:55.471Z,33.05
2019-05-10T04:07:00.280Z,33.15
2019-05-10T04:08:05.663Z,33.00
2019-05-10T04:09:10.730Z,31.95
2019-05-10T04:10:20.403Z,31.82
2019-05-10T04:11:22.482Z,32.13
2019-05-10T04:12:27.481Z,31.85
2019-05-10T04:13:32.489Z,31.93
2019-05-10T04:14:37.718Z,32.03
2019-05-10T04:15:42.840Z,31.93
2019-05-10T04:16:47.954Z,31.37
2019-05-10T04:17:52.964Z,32.30
2019-05-10T04:18:58.072Z,32.20
2019-05-10T04:20:03.179Z,33.28
2019-05-10T04:21:08.310Z,31.93
2019-05-10T04:22:13.231Z,32.42
2019-05-10T04:23:18.546Z,33.45
2019-05-10T04:24:23.452Z,32.60
2019-05-10T04:25:28.578Z,31.93
2019-05-10T04:26:33.577Z,31.35
2019-05-10T04:27:38.610Z,31.27
2019-05-10T04:28:43.807Z,32.85
2019-05-10T04:29:48.806Z,32.20
2019-05-10T04:30:53.745Z,31.48
2019-05-10T04:31:59.023Z,32.10
2019-05-10T04:33:04.051Z,31.48
2019-05-10T04:34:09.131Z,32.33
2019-05-10T04:35:14.262Z,31.25
2019-05-10T04:36:19.296Z,31.75
2019-05-10T04:37:24.305Z,31.07
2019-05-10T04:38:29.412Z,30.60
2019-05-10T04:39:34.693Z,31.73
2019-05-10T04:40:42.216Z,31.42
2019-05-10T04:41:47.167Z,30.27
2019-05-10T04:42:52.176Z,31.12
2019-05-10T04:43:57.137Z,32.10
2019-05-10T04:45:02.289Z,31.95
2019-05-10T04:46:07.290Z,31.35
2019-05-10T04:47:12.407Z,30.72
2019-05-10T04:48:17.330Z,31.93
2019-05-10T04:49:22.368Z,31.57
2019-05-10T04:50:27.180Z,30.17
2019-05-10T04:51:32.301Z,31.80
2019-05-10T04:52:37.232Z,32.35
2019-05-10T04:53:42.384Z,31.35
2019-05-10T04:54:47.206Z,32.15
2019-05-10T04:55:52.289Z,33.35
2019-05-10T04:57:00.098Z,32.33
2019-05-10T04:58:03.867Z,32.60
2019-05-10T04:59:08.651Z,32.60
2019-05-10T05:00:13.856Z,31.02
2019-05-10T05:01:18.693Z,32.15
2019-05-10T05:02:23.771Z,30.08
2019-05-10T05:03:28.613Z,30.88
2019-05-10T05:04:33.730Z,31.65
2019-05-10T05:05:38.769Z,31.05
2019-05-10T05:06:43.853Z,31.37
2019-05-10T05:07:48.774Z,32.25
2019-05-10T05:08:53.777Z,32.70
2019-05-10T05:09:58.624Z,30.35
2019-05-10T05:11:03.703Z,31.95
2019-05-10T05:12:08.608Z,33.28
2019-05-10T05:13:13.540Z,32.45
2019-05-10T05:14:18.298Z,32.00
2019-05-10T05:15:23.264Z,31.33
2019-05-10T05:16:28.238Z,31.35
2019-05-10T05:17:33.278Z,31.07
2019-05-10T05:18:38.183Z,30.32
2019-05-10T05:19:43.153Z,32.20
2019-05-10T05:20:48.007Z,32.23
2019-05-10T05:21:53.208Z,31.23
2019-05-10T05:22:58.268Z,32.35
2019-05-10T05:24:03.253Z,32.53
2019-05-10T05:25:08.844Z,34.73
2019-05-10T05:26:13.862Z,32.50
2019-05-10T05:27:19.106Z,32.10
2019-05-10T05:28:24.712Z,30.70
2019-05-10T05:29:29.711Z,31.57
2019-05-10T05:30:38.524Z,32.03
2019-05-10T05:31:41.293Z,32.10
2019-05-10T05:32:46.222Z,32.42
2019-05-10T05:33:51.200Z,33.28
2019-05-10T05:34:56.174Z,32.33
2019-05-10T05:36:02.420Z,32.70
2019-05-10T05:37:07.589Z,31.45
2019-05-10T05:38:12.694Z,32.13
2019-05-10T05:39:17.777Z,31.82
2019-05-10T05:40:22.854Z,31.17
2019-05-10T05:41:31.542Z,32.83
2019-05-10T05:42:34.624Z,32.48
2019-05-10T05:43:45.672Z,31.73
2019-05-10T05:44:46.543Z,32.13
2019-05-10T05:45:51.553Z,32.70
2019-05-10T05:46:56.528Z,31.77
2019-05-10T05:48:01.473Z,32.48
2019-05-10T05:49:06.551Z,33.45
2019-05-10T05:50:11.993Z,33.45
2019-05-10T05:51:16.983Z,34.05
2019-05-10T05:52:21.947Z,33.58
2019-05-10T05:53:27.161Z,31.70
2019-05-10T05:54:32.090Z,30.85
2019-05-10T05:55:37.109Z,32.28
2019-05-10T05:56:44.566Z,31.57
2019-05-10T05:57:48.787Z,31.30
2019-05-10T05:58:53.742Z,31.85
2019-05-10T06:00:04.036Z,32.90
2019-05-10T06:01:05.405Z,31.85
2019-05-10T06:02:10.418Z,29.25
2019-05-10T06:03:19.314Z,31.00
2019-05-10T06:04:22.097Z,31.48
2019-05-10T06:05:34.105Z,32.10
2019-05-10T06:06:33.632Z,31.62
2019-05-10T06:07:39.507Z,31.40
2019-05-10T06:08:44.485Z,30.62
2019-05-10T06:09:49.403Z,30.95
2019-05-10T06:10:57.558Z,30.52
2019-05-10T06:12:01.059Z,32.25
2019-05-10T06:13:06.081Z,31.52
2019-05-10T06:14:13.031Z,30.97
2019-05-10T06:15:26.549Z,31.33
2019-05-10T06:16:24.328Z,32.40
2019-05-10T06:17:31.532Z,32.15
2019-05-10T06:18:35.896Z,32.10
2019-05-10T06:19:40.806Z,31.30
2019-05-10T06:20:46.998Z,31.40
2019-05-10T06:21:57.953Z,33.02
2019-05-10T06:23:06.365Z,31.23
2019-05-10T06:24:07.465Z,31.62
2019-05-10T06:25:12.413Z,31.93
2019-05-10T06:26:26.692Z,31.27
2019-05-10T06:27:24.229Z,31.02
2019-05-10T06:28:56.833Z,31.90
2019-05-10T06:29:36.128Z,32.05
2019-05-10T06:30:41.289Z,30.60
2019-05-10T06:31:46.367Z,31.97
2019-05-10T06:32:53.293Z,31.93
2019-05-10T06:33:58.259Z,31.40
2019-05-10T06:35:03.328Z,30.60
2019-05-10T06:36:08.518Z,31.33
2019-05-10T06:37:13.697Z,32.07
2019-05-10T06:38:18.804Z,29.93
2019-05-10T06:39:23.893Z,30.25
2019-05-10T06:40:34.784Z,30.32
2019-05-10T06:41:35.821Z,29.90
2019-05-10T06:42:40.996Z,29.27
2019-05-10T06:43:51.385Z,29.63
2019-05-10T06:44:53.380Z,28.57
2019-05-10T06:45:58.385Z,29.87
2019-05-10T06:47:08.319Z,28.87
2019-05-10T06:48:10.384Z,30.70
2019-05-10T06:49:15.466Z,28.85
2019-05-10T06:50:28.928Z,29.85
2019-05-10T06:51:27.572Z,29.23
2019-05-10T06:52:32.632Z,29.23
2019-05-10T06:53:42.166Z,29.48
2019-05-10T06:54:44.544Z,29.48
2019-05-10T06:55:49.623Z,28.80
2019-05-10T06:56:54.702Z,29.95
2019-05-10T06:58:00.917Z,28.05
2019-05-10T06:59:13.316Z,28.60
2019-05-10T07:00:13.740Z,27.05
2019-05-10T07:01:18.833Z,27.67
2019-05-10T07:02:32.226Z,27.27
2019-05-10T07:03:33.639Z,27.48
2019-05-10T07:04:41.046Z,27.73
2019-05-10T07:05:45.794Z,27.35
2019-05-10T07:06:51.028Z,26.33
2019-05-10T07:08:00.606Z,28.12
2019-05-10T07:09:04.470Z,28.32
2019-05-10T07:10:18.705Z,28.33
2019-05-10T07:11:17.059Z,29.03
2019-05-10T07:12:22.124Z,28.43
2019-05-10T07:13:27.166Z,28.63
2019-05-10T07:14:32.280Z,28.17
2019-05-10T07:15:42.022Z,28.47
2019-05-10T07:16:44.286Z,29.13
2019-05-10T07:17:51.925Z,30.60
2019-05-10T07:19:00.761Z,27.53
2019-05-10T07:20:08.244Z,29.42
2019-05-10T07:21:13.344Z,27.15
2019-05-10T07:22:21.809Z,29.33
2019-05-10T07:23:30.086Z,29.00
2019-05-10T07:24:34.007Z,28.23
2019-05-10T07:25:43.626Z,29.57
2019-05-10T07:26:45.637Z,28.13
2019-05-10T07:27:50.817Z,29.35
2019-05-10T07:28:57.385Z,28.90
2019-05-10T07:30:02.533Z,28.20
2019-05-10T07:31:07.985Z,27.43
2019-05-10T07:32:16.358Z,27.97
2019-05-10T07:33:19.709Z,27.77
2019-05-10T07:34:24.844Z,26.63
2019-05-10T07:35:30.973Z,26.80
2019-05-10T07:36:36.498Z,26.60
2019-05-10T07:37:41.622Z,25.37
2019-05-10T07:38:46.649Z,24.17
2019-05-10T07:39:51.664Z,25.13
2019-05-10T07:40:56.643Z,25.23
2019-05-10T07:42:06.811Z,25.25
2019-05-10T07:43:08.456Z,26.00
2019-05-10T07:44:13.556Z,25.43
2019-05-10T07:45:24.953Z,25.67
2019-05-10T07:46:25.294Z,25.67
2019-05-10T07:47:32.515Z,25.73
2019-05-10T07:48:41.188Z,25.53
2019-05-10T07:49:44.475Z,25.03
2019-05-10T07:50:51.927Z,23.33
2019-05-10T07:52:02.222Z,26.30
2019-05-10T07:53:03.176Z,25.63
2019-05-10T07:54:08.272Z,23.83
2019-05-10T07:55:17.879Z,26.47
2019-05-10T07:56:20.096Z,25.97
2019-05-10T07:57:26.988Z,24.67
2019-05-10T07:58:31.761Z,25.00
2019-05-10T07:59:49.454Z,24.00
2019-05-10T08:00:46.488Z,23.63
2019-05-10T08:01:50.823Z,24.33
2019-05-10T08:03:02.418Z,24.93
2019-05-10T08:04:02.445Z,24.67
2019-05-10T08:05:10.858Z,24.83
2019-05-10T08:06:15.468Z,24.80
2019-05-10T08:07:20.629Z,25.50
2019-05-10T08:08:29.556Z,25.57
2019-05-10T08:09:37.165Z,24.23
2019-05-10T08:10:39.511Z,24.23
2019-05-10T08:11:44.693Z,24.17
2019-05-10T08:12:49.690Z,24.27
2019-05-10T08:13:57.838Z,23.33
2019-05-10T08:15:01.590Z,23.70
2019-05-10T08:16:11.836Z,24.23
2019-05-10T08:17:13.636Z,23.53
2019-05-10T08:18:23.456Z,23.43
2019-05-10T08:19:25.489Z,22.60
2019-05-10T08:20:43.710Z,22.53
2019-05-10T08:21:37.198Z,22.47
2019-05-10T08:22:45.946Z,24.50
2019-05-10T08:23:48.932Z,22.50
2019-05-10T08:24:56.352Z,23.77
2019-05-10T08:26:04.240Z,23.00
2019-05-10T08:27:14.012Z,23.97
2019-05-10T08:28:13.964Z,24.10
2019-05-10T08:29:18.969Z,24.57
2019-05-10T08:30:51.764Z,24.37
2019-05-10T08:31:53.658Z,24.07
2019-05-10T08:33:00.203Z,24.43
2019-05-10T08:34:04.078Z,24.53
2019-05-10T08:35:16.399Z,23.20
2019-05-10T08:36:15.991Z,23.10
2019-05-10T08:37:30.773Z,23.47
2019-05-10T08:38:27.761Z,24.73
2019-05-10T08:39:44.175Z,24.17
2019-05-10T08:40:39.352Z,24.40
2019-05-10T08:41:45.889Z,22.67
2019-05-10T08:43:00.181Z,23.67
2019-05-10T08:44:02.409Z,23.53
2019-05-10T08:45:08.954Z,22.63
2019-05-10T08:46:14.324Z,21.67
2019-05-10T08:47:26.608Z,21.53
2019-05-10T08:48:27.693Z,21.50
2019-05-10T08:49:43.614Z,22.80
2019-05-10T08:50:49.315Z,23.17
2019-05-10T08:51:49.260Z,22.60
2019-05-10T08:52:56.711Z,22.47
2019-05-10T08:54:01.610Z,24.43
2019-05-10T08:55:06.389Z,24.30
2019-05-10T08:56:16.650Z,23.47
2019-05-10T08:57:18.723Z,21.73
2019-05-10T08:58:31.334Z,23.47
2019-05-10T08:59:30.912Z,22.27
2019-05-10T09:00:49.727Z,22.67
2019-05-10T09:01:46.641Z,21.63
2019-05-10T09:02:49.354Z,22.23
2019-05-10T09:03:59.337Z,21.13
2019-05-10T09:05:02.632Z,22.57
2019-05-10T09:06:11.901Z,20.43
2019-05-10T09:07:14.472Z,21.47
2019-05-10T09:08:21.584Z,20.97
2019-05-10T09:09:26.183Z,21.10
2019-05-10T09:10:32.350Z,20.63
2019-05-10T09:11:37.528Z,22.03
2019-05-10T09:12:51.162Z,19.93
2019-05-10T09:13:49.287Z,20.20
2019-05-10T09:15:05.272Z,20.43
2019-05-10T09:16:02.378Z,20.27
2019-05-10T09:17:08.541Z,19.67
2019-05-10T09:18:16.445Z,19.87
2019-05-10T09:19:27.662Z,20.53
2019-05-10T09:20:28.136Z,20.60
2019-05-10T09:21:33.168Z,19.93
2019-05-10T09:22:38.733Z,20.33
2019-05-10T09:23:43.962Z,19.73
2019-05-10T09:24:50.054Z,19.97
2019-05-10T09:25:56.381Z,20.40
2019-05-10T09:27:01.885Z,20.97
2019-05-10T09:28:11.787Z,20.07
2019-05-10T09:29:13.783Z,19.90
2019-05-10T09:30:35.445Z,18.13
2019-05-10T09:31:45.878Z,20.13
2019-05-10T09:32:47.453Z,19.80
2019-05-10T09:33:54.335Z,19.37
2019-05-10T09:34:59.852Z,19.13
2019-05-10T09:36:06.104Z,19.40
2019-05-10T09:37:14.514Z,18.83
2019-05-10T09:38:18.965Z,18.27
2019-05-10T09:39:25.223Z,18.00
2019-05-10T09:40:32.682Z,18.47
2019-05-10T09:41:38.461Z,17.37
2019-05-10T09:42:43.925Z,16.87
2019-05-10T09:43:50.601Z,16.50
2019-05-10T09:44:55.745Z,18.27
2019-05-10T09:46:02.720Z,17.60
2019-05-10T09:47:07.518Z,17.77
2019-05-10T09:48:12.726Z,18.17
2019-05-10T09:49:18.679Z,18.63
2019-05-10T09:50:23.909Z,17.67
2019-05-10T09:51:30.995Z,17.57
2019-05-10T09:52:36.226Z,17.50
2019-05-10T09:53:41.368Z,18.03
2019-05-10T09:54:49.223Z,18.03
2019-05-10T09:56:01.774Z,16.53
2019-05-10T09:57:00.518Z,15.77
2019-05-10T09:58:05.560Z,16.50
2019-05-10T09:59:10.628Z,16.37
2019-05-10T10:00:17.479Z,16.97
2019-05-10T10:01:22.634Z,17.17
2019-05-10T10:02:33.706Z,16.63
2019-05-10T10:03:39.909Z,16.97
2019-05-10T10:04:41.896Z,16.10
2019-05-10T10:05:48.394Z,16.27
2019-05-10T10:06:53.664Z,17.03
2019-05-10T10:08:03.810Z,15.33
2019-05-10T10:09:07.415Z,16.17
2019-05-10T10:10:21.299Z,16.77
2019-05-10T10:11:20.588Z,17.30
2019-05-10T10:12:25.642Z,16.77
2019-05-10T10:13:39.325Z,15.37
2019-05-10T10:14:39.305Z,15.27
2019-05-10T10:15:49.484Z,14.93
2019-05-10T10:16:58.521Z,13.70
2019-05-10T10:17:58.330Z,14.37
2019-05-10T10:19:03.612Z,14.57
2019-05-10T10:20:09.048Z,14.50
2019-05-10T10:21:20.348Z,13.53
2019-05-10T10:22:20.951Z,13.73
2019-05-10T10:23:30.698Z,14.97
2019-05-10T10:24:32.739Z,14.80
2019-05-10T10:25:40.474Z,14.33
2019-05-10T10:26:44.846Z,13.63
2019-05-10T10:27:50.166Z,13.67
2019-05-10T10:28:57.861Z,14.70
2019-05-10T10:30:06.569Z,15.03
2019-05-10T10:31:09.131Z,14.37
2019-05-10T10:32:14.495Z,14.60
2019-05-10T10:33:25.384Z,15.00
2019-05-10T10:34:27.202Z,13.50
2019-05-10T10:35:32.554Z,13.73
2019-05-10T10:36:40.186Z,13.30
2019-05-10T10:37:44.551Z,15.13
2019-05-10T10:38:49.902Z,15.87
2019-05-10T10:40:03.088Z,15.80
2019-05-10T10:41:02.564Z,13.97
2019-05-10T10:42:12.935Z,13.50
2019-05-10T10:43:14.975Z,15.20
2019-05-10T10:44:19.943Z,13.27
2019-05-10T10:45:27.587Z,13.40
2019-05-10T10:46:34.546Z,12.03
2019-05-10T10:47:39.089Z,13.97
2019-05-10T10:48:49.257Z,13.70
2019-05-10T10:49:51.168Z,13.93
2019-05-10T10:50:58.652Z,14.60
2019-05-10T10:52:05.566Z,12.90
2019-05-10T10:53:09.866Z,13.37
2019-05-10T10:54:17.443Z,12.87
2019-05-10T10:55:21.664Z,13.07
2019-05-10T10:56:27.622Z,14.10
2019-05-10T10:57:32.894Z,13.57
2019-05-10T10:58:37.925Z,14.40
2019-05-10T10:59:43.037Z,15.00
2019-05-10T11:00:48.283Z,14.53
2019-05-10T11:02:25.258Z,15.17
2019-05-10T11:03:02.377Z,13.50
2019-05-10T11:04:08.356Z,14.63
2019-05-10T11:05:14.119Z,14.30
2019-05-10T11:06:19.100Z,13.87
2019-05-10T11:07:24.056Z,15.07
2019-05-10T11:08:32.899Z,14.37
2019-05-10T11:09:36.011Z,14.00
2019-05-10T11:10:42.865Z,13.63
2019-05-10T11:11:47.680Z,13.83
2019-05-10T11:12:56.303Z,13.77
2019-05-10T11:14:06.965Z,14.77
2019-05-10T11:15:06.958Z,13.40
2019-05-10T11:16:15.746Z,12.50
2019-05-10T11:17:19.801Z,13.33
2019-05-10T11:18:24.818Z,13.40
2019-05-10T11:19:31.648Z,13.97
2019-05-10T11:20:36.356Z,13.70
2019-05-10T11:21:41.651Z,13.27
2019-05-10T11:22:49.776Z,13.63
2019-05-10T11:23:53.454Z,12.90
2019-05-10T11:25:03.187Z,13.53
2019-05-10T11:26:05.319Z,13.27
2019-05-10T11:27:13.202Z,13.27
2019-05-10T11:28:17.440Z,13.53
2019-05-10T11:29:27.733Z,13.93
2019-05-10T11:30:29.351Z,13.83
2019-05-10T11:31:34.454Z,12.90
2019-05-10T11:32:41.831Z,12.63
2019-05-10T11:33:47.438Z,12.67
2019-05-10T11:34:53.516Z,12.77
2019-05-10T11:36:03.977Z,13.20
2019-05-10T11:37:06.104Z,12.00
2019-05-10T11:38:14.520Z,12.60
2019-05-10T11:39:25.920Z,12.63
2019-05-10T11:40:30.875Z,11.47
2019-05-10T11:41:31.874Z,12.30
2019-05-10T11:42:37.546Z,11.97
2019-05-10T11:43:43.892Z,12.57
2019-05-10T11:44:50.914Z,12.83
2019-05-10T11:45:55.821Z,13.63
2019-05-10T11:47:01.500Z,12.43
2019-05-10T11:48:06.957Z,12.37
2019-05-10T11:49:12.176Z,12.43
2019-05-10T11:50:28.673Z,12.17
2019-05-10T11:51:24.615Z,11.93
2019-05-10T11:52:34.623Z,12.97
2019-05-10T11:53:36.589Z,12.37
2019-05-10T11:54:41.926Z,13.17
2019-05-10T11:55:47.018Z,12.33
2019-05-10T11:56:52.436Z,13.07
2019-05-10T11:59:03.772Z,12.87
2019-05-10T11:59:05.408Z,13.20
2019-05-10T12:00:24.458Z,13.20
2019-05-10T12:02:38.024Z,12.13
2019-05-10T12:03:32.127Z,12.70
2019-05-10T12:04:39.552Z,12.10
2019-05-10T12:05:44.017Z,13.00
2019-05-10T12:06:50.394Z,13.60
2019-05-10T12:07:55.930Z,12.13
2019-05-10T12:09:04.397Z,12.93
2019-05-10T12:10:16.953Z,13.17
2019-05-10T12:11:27.509Z,12.30
2019-05-10T12:12:29.525Z,12.13
2019-05-10T12:13:28.056Z,12.43
2019-05-10T12:14:33.128Z,12.83
2019-05-10T12:15:38.106Z,11.53
2019-05-10T12:16:43.146Z,11.87
2019-05-10T12:17:57.790Z,11.80
2019-05-10T12:19:10.577Z,11.50
2019-05-10T12:20:02.613Z,10.90
2019-05-10T12:21:09.598Z,10.57
2019-05-10T12:22:15.891Z,10.83
2019-05-10T12:23:29.491Z,10.80
2019-05-10T12:24:45.504Z,10.90
2019-05-10T12:25:51.031Z,11.33
2019-05-10T12:26:18.652Z,13.10
2019-05-10T12:27:51.442Z,11.13
2019-05-10T12:29:02.679Z,11.13
2019-05-10T12:30:03.432Z,10.57
2019-05-10T12:31:13.406Z,10.20
2019-05-10T12:32:15.459Z,9.80
2019-05-10T12:33:24.892Z,10.50
2019-05-10T12:34:27.540Z,10.87
2019-05-10T12:35:39.919Z,10.53
2019-05-10T12:36:41.210Z,10.70
2019-05-10T12:37:51.432Z,10.80
2019-05-10T12:38:53.107Z,10.60
2019-05-10T12:40:06.230Z,11.30
2019-05-10T12:41:05.524Z,11.30
2019-05-10T12:42:11.311Z,10.53
2019-05-10T12:43:17.728Z,10.30
2019-05-10T12:44:22.730Z,10.73
2019-05-10T12:45:27.798Z,11.53
2019-05-10T12:46:33.013Z,11.53
2019-05-10T12:47:38.143Z,11.10
2019-05-10T12:48:43.137Z,11.13
2019-05-10T12:49:48.181Z,10.07
2019-05-10T12:50:57.929Z,10.53
2019-05-10T12:51:59.975Z,9.83
2019-05-10T12:53:14.439Z,9.67
2019-05-10T12:54:11.749Z,10.87
2019-05-10T12:55:16.855Z,11.30
2019-05-10T12:56:22.030Z,10.63
2019-05-10T12:57:27.099Z,9.60
2019-05-10T12:58:32.096Z,9.53
2019-05-10T12:59:37.140Z,10.40
2019-05-10T13:00:46.452Z,11.27
2019-05-10T13:01:48.968Z,14.60
2019-05-10T13:02:53.962Z,15.97
2019-05-10T13:04:02.030Z,15.90
2019-05-10T13:05:06.606Z,16.67
2019-05-10T13:06:11.701Z,16.00
2019-05-10T13:07:16.714Z,17.13
2019-05-10T13:08:21.817Z,17.53
2019-05-10T13:09:38.619Z,17.57
2019-05-10T13:10:37.059Z,17.70
2019-05-10T13:11:40.983Z,17.10
2019-05-10T13:12:47.410Z,18.50
2019-05-10T13:13:52.937Z,18.07
2019-05-10T13:14:58.000Z,18.10
2019-05-10T13:16:08.690Z,19.73
2019-05-10T13:17:12.370Z,19.90
2019-05-10T13:18:23.249Z,20.13
2019-05-10T13:19:25.190Z,21.03
2019-05-10T13:20:31.049Z,21.07
2019-05-10T13:21:37.575Z,21.97
2019-05-10T13:22:42.832Z,20.80
2019-05-10T13:23:53.766Z,22.10
2019-05-10T13:25:21.890Z,21.03
2019-05-10T13:26:35.056Z,20.70
2019-05-10T13:27:42.018Z,20.90
2019-05-10T13:28:48.747Z,21.10
2019-05-10T13:29:54.271Z,20.33
2019-05-10T13:30:59.691Z,21.50
2019-05-10T13:32:06.428Z,20.70
2019-05-10T13:33:26.666Z,21.60
2019-05-10T13:34:18.248Z,22.30
2019-05-10T13:35:23.506Z,22.10
2019-05-10T13:36:30.802Z,22.00
2019-05-10T13:37:36.157Z,22.03
2019-05-10T13:38:43.154Z,23.83
2019-05-10T13:39:48.096Z,23.30
2019-05-10T13:40:53.253Z,22.83
2019-05-10T13:42:09.507Z,24.30
2019-05-10T13:43:11.750Z,23.40
2019-05-10T13:44:18.059Z,24.40
2019-05-10T13:45:23.486Z,23.63
2019-05-10T13:46:29.429Z,24.50
2019-05-10T13:47:34.822Z,24.43
2019-05-10T13:48:40.200Z,24.57
2019-05-10T13:49:48.667Z,24.00
2019-05-10T13:50:53.303Z,24.47
2019-05-10T13:51:59.237Z,25.27
2019-05-10T13:53:04.889Z,24.07
2019-05-10T13:54:10.423Z,24.90
2019-05-10T13:55:15.600Z,24.63
2019-05-10T13:56:20.992Z,25.07
2019-05-10T13:57:26.253Z,24.63
2019-05-10T13:58:31.597Z,25.07
2019-05-10T13:59:37.273Z,25.80
2019-05-10T14:00:42.903Z,25.50
2019-05-10T14:01:49.433Z,25.57
2019-05-10T14:02:55.285Z,24.20
2019-05-10T14:04:03.291Z,24.77
2019-05-10T14:05:12.054Z,25.07
2019-05-10T14:06:14.814Z,25.47
2019-05-10T14:07:20.314Z,24.80
2019-05-10T14:08:25.687Z,25.83
2019-05-10T14:09:31.313Z,24.73
2019-05-10T14:10:37.491Z,25.62